MMMV

Details ICAO MMMV (LOV)
Name MONCLOVA INTL
Region Mexico
Timezone America/Monterrey (UTC-6.0)
Plans Departing 12
Arriving 11
Stats Elevation 1,864 ft / 568 m (AMSL)
Location 26.955731° -101.470134°
Runways 2
Magnetic Variation 5.687° E
Sunrise 2017-12-12 13:27:09 UTC / 2017-12-12 07:27:09 Local
Sunset 2017-12-12 23:55:11 UTC / 2017-12-12 17:55:11 Local
Advertisement - Login to hide

Runways

ID Width Length Bearing (true) Bearing (mag) Surface Threshold Offset Overrun Length
06L 66 ft / 20 m 4,781 ft / 1,457 m 72.64° 66.95° Asphalt 0 ft / 0 m 0 ft / 0 m
06R 148 ft / 45 m 6,891 ft / 2,100 m 72.63° 66.94° Asphalt 285 ft / 87 m 140 ft / 43 m
24L 148 ft / 45 m 6,891 ft / 2,100 m 252.64° 246.95° Asphalt 660 ft / 201 m 125 ft / 38 m
24R 66 ft / 20 m 4,781 ft / 1,457 m 252.64° 246.95° Asphalt 470 ft / 143 m 0 ft / 0 m

Map

Weather


0- 5 10 15 20 25 30 35+ Temperature / ° C

Clouds and Precipitation
Forecast for 2017-12-12 18:00 UTC. Updated an hour ago

Ground ~20,000 ft ~40,000 ft Winds

METAR

MMMV 121748Z 05012KT 10SM FEW080 BKN200 17/04 A3040 RMK 8/072

TAF

Not found

Frequencies

Tower 118.90 MHz INFO
Warning: Do not use this data for real-world aviation or navigation. No guarantee of current accuracy is given.